Time;durP1;ratioP1;P1;durP2;ratioP2;P2;SDS_P1;SDS_P2;PMS_P1;PMS_P2;Temp;Humidity;BMP_temperature;BMP_pressure;BME280_temperature;BME280_humidity;BME280_pressure;Samples;Min_cycle;Max_cycle;Signal;HPM_P1;HPM_P2
2023/08/13 00:07:03;;;;;;;5.72;2.47;;;;;;;;;;21002617;28;20053;-62
2023/08/13 00:17:04;;;;;;;7.93;3.20;;;;;;;;;;21003053;28;20047;-62
2023/08/13 00:27:06;;;;;;;6.15;1.88;;;;;;;;;;21002467;28;20040;-62
2023/08/13 00:37:07;;;;;;;6.47;1.80;;;;;;;;;;21000975;28;20414;-62
2023/08/13 00:47:09;;;;;;;5.30;1.60;;;;;;;;;;21000452;28;20402;-62
2023/08/13 00:57:10;;;;;;;7.85;1.88;;;;;;;;;;21000197;28;20040;-62
2023/08/13 01:07:14;;;;;;;4.93;2.45;;;;;;;;;;20999200;28;20074;-62
2023/08/13 01:17:17;;;;;;;11.70;4.45;;;;;;;;;;20999065;28;20474;-62
2023/08/13 01:27:30;;;;;;;5.38;1.83;;;;;;;;;;20998314;28;20124;-61
2023/08/13 01:37:31;;;;;;;6.15;2.08;;;;;;;;;;20997624;28;20040;-60
2023/08/13 01:47:32;;;;;;;5.70;2.28;;;;;;;;;;20996087;28;20459;-62
2023/08/13 01:57:33;;;;;;;9.05;3.42;;;;;;;;;;20996449;28;20383;-62
2023/08/13 02:07:34;;;;;;;5.13;2.60;;;;;;;;;;20996024;28;20048;-62
2023/08/13 02:17:35;;;;;;;8.90;2.83;;;;;;;;;;20995780;28;20166;-61
2023/08/13 02:27:36;;;;;;;3.72;1.88;;;;;;;;;;20995431;28;20106;-61
2023/08/13 02:37:38;;;;;;;6.82;1.73;;;;;;;;;;20993954;28;20055;-61
2023/08/13 02:47:39;;;;;;;4.00;1.02;;;;;;;;;;20994609;28;20053;-61
2023/08/13 02:57:40;;;;;;;4.55;2.10;;;;;;;;;;21000380;28;20052;-61
2023/08/13 03:07:41;;;;;;;7.15;1.40;;;;;;;;;;21007218;28;20157;-61
2023/08/13 03:17:42;;;;;;;6.53;1.35;;;;;;;;;;21008003;28;20049;-62
2023/08/13 03:27:43;;;;;;;5.07;1.77;;;;;;;;;;21007172;28;20040;-62
2023/08/13 03:37:44;;;;;;;4.78;1.42;;;;;;;;;;21006973;28;20555;-60
2023/08/13 03:47:46;;;;;;;7.25;1.65;;;;;;;;;;21005775;28;20117;-61
2023/08/13 03:57:47;;;;;;;4.32;1.50;;;;;;;;;;21005233;28;20123;-60
2023/08/13 04:07:48;;;;;;;4.68;1.35;;;;;;;;;;21004241;28;20056;-61
2023/08/13 04:17:49;;;;;;;9.30;1.90;;;;;;;;;;21003379;28;20098;-61
2023/08/13 04:27:50;;;;;;;5.05;1.13;;;;;;;;;;21002552;28;20047;-61
2023/08/13 04:37:52;;;;;;;4.70;0.93;;;;;;;;;;21001983;28;20098;-60
2023/08/13 04:47:53;;;;;;;5.78;1.00;;;;;;;;;;21000316;28;20049;-61
2023/08/13 04:57:54;;;;;;;4.07;1.15;;;;;;;;;;20998973;28;20055;-61
2023/08/13 05:07:55;;;;;;;6.65;1.35;;;;;;;;;;20998110;28;20128;-61
2023/08/13 05:17:57;;;;;;;7.72;1.50;;;;;;;;;;20997793;28;20084;-61
2023/08/13 05:27:59;;;;;;;7.05;1.45;;;;;;;;;;20998193;28;20451;-61
2023/08/13 05:38:00;;;;;;;4.78;1.13;;;;;;;;;;20997861;28;20051;-62
2023/08/13 05:48:01;;;;;;;3.15;1.15;;;;;;;;;;20996773;28;20048;-61
2023/08/13 05:58:02;;;;;;;7.82;1.75;;;;;;;;;;20996716;28;20477;-61
2023/08/13 06:08:03;;;;;;;12.23;2.90;;;;;;;;;;20996304;28;20130;-61
2023/08/13 06:18:05;;;;;;;5.57;1.60;;;;;;;;;;20994749;28;20037;-61
2023/08/13 06:28:06;;;;;;;12.32;2.97;;;;;;;;;;20995600;28;20047;-62
2023/08/13 06:38:07;;;;;;;9.70;3.10;;;;;;;;;;21009023;28;20042;-61
2023/08/13 06:48:09;;;;;;;10.07;2.75;;;;;;;;;;21008472;28;20190;-62
2023/08/13 06:58:10;;;;;;;10.57;3.58;;;;;;;;;;21009068;28;20053;-61
2023/08/13 07:08:11;;;;;;;10.77;3.65;;;;;;;;;;21008718;28;20501;-61
2023/08/13 07:18:12;;;;;;;10.65;3.72;;;;;;;;;;21006562;28;20059;-61
2023/08/13 07:28:13;;;;;;;10.65;3.30;;;;;;;;;;21006911;28;20123;-62
2023/08/13 07:38:14;;;;;;;8.43;3.53;;;;;;;;;;21006481;28;20048;-62
2023/08/13 07:48:15;;;;;;;11.23;3.60;;;;;;;;;;21003508;28;20053;-62
2023/08/13 07:58:18;;;;;;;10.93;3.67;;;;;;;;;;21003902;28;20044;-62
2023/08/13 08:08:19;;;;;;;10.35;3.58;;;;;;;;;;21003707;28;20056;-62
2023/08/13 08:18:20;;;;;;;11.82;3.70;;;;;;;;;;21003470;28;20402;-61
2023/08/13 08:28:21;;;;;;;10.35;3.67;;;;;;;;;;21001816;28;20489;-62
2023/08/13 08:38:22;;;;;;;9.75;3.53;;;;;;;;;;21001290;28;20413;-62
2023/08/13 08:48:25;;;;;;;12.65;4.35;;;;;;;;;;21000309;28;20401;-61
2023/08/13 08:58:28;;;;;;;9.13;3.20;;;;;;;;;;20998566;28;20124;-61
2023/08/13 09:08:29;;;;;;;7.72;3.05;;;;;;;;;;20997184;28;20056;-62
2023/08/13 09:18:39;;;;;;;7.43;2.78;;;;;;;;;;20998334;28;20051;-61
2023/08/13 09:28:43;;;;;;;7.18;2.58;;;;;;;;;;20996589;28;20056;-62
2023/08/13 09:38:44;;;;;;;8.52;3.08;;;;;;;;;;20995527;28;20071;-72
2023/08/13 09:48:46;;;;;;;9.43;3.08;;;;;;;;;;20996034;28;20447;-71
2023/08/13 09:58:47;;;;;;;5.68;2.50;;;;;;;;;;20996221;28;20052;-63
2023/08/13 10:08:49;;;;;;;8.13;2.50;;;;;;;;;;21005824;28;20570;-65
2023/08/13 10:18:50;;;;;;;8.70;2.20;;;;;;;;;;21010930;28;20046;-65
2023/08/13 10:28:54;;;;;;;6.05;2.42;;;;;;;;;;21010463;28;20325;-65
2023/08/13 10:38:55;;;;;;;8.48;2.13;;;;;;;;;;21009562;28;20040;-66
2023/08/13 10:48:58;;;;;;;5.70;1.90;;;;;;;;;;21009330;28;20067;-65
2023/08/13 10:59:01;;;;;;;5.75;1.83;;;;;;;;;;21005051;28;20072;-65
2023/08/13 11:09:02;;;;;;;6.50;2.97;;;;;;;;;;20998073;28;20052;-64
2023/08/13 11:19:04;;;;;;;4.78;1.90;;;;;;;;;;21005977;28;20044;-65
2023/08/13 11:29:06;;;;;;;6.60;2.30;;;;;;;;;;21004995;28;20036;-65
2023/08/13 11:39:07;;;;;;;9.60;2.50;;;;;;;;;;21005713;28;20068;-65
2023/08/13 11:49:15;;;;;;;4.75;2.13;;;;;;;;;;21005081;28;20048;-66
2023/08/13 11:59:21;;;;;;;5.22;1.70;;;;;;;;;;21003497;28;20070;-64
2023/08/13 12:09:22;;;;;;;9.50;3.60;;;;;;;;;;21003908;28;20044;-65
2023/08/13 12:19:23;;;;;;;5.35;2.28;;;;;;;;;;21002885;28;20128;-65
2023/08/13 12:29:24;;;;;;;6.68;3.95;;;;;;;;;;21000282;28;20040;-65
2023/08/13 12:39:25;;;;;;;6.20;2.70;;;;;;;;;;21001247;28;20040;-66
2023/08/13 12:49:26;;;;;;;3.55;1.20;;;;;;;;;;20999659;28;20044;-66
2023/08/13 12:59:28;;;;;;;7.40;1.70;;;;;;;;;;20998554;28;20045;-65
2023/08/13 13:09:29;;;;;;;6.25;1.45;;;;;;;;;;20998836;28;20044;-65
2023/08/13 13:19:30;;;;;;;5.90;1.58;;;;;;;;;;20998644;28;20044;-66
2023/08/13 13:29:31;;;;;;;3.55;1.35;;;;;;;;;;20997698;28;20044;-65
2023/08/13 13:39:32;;;;;;;5.93;1.45;;;;;;;;;;20997037;28;20108;-65
2023/08/13 13:49:33;;;;;;;4.53;1.55;;;;;;;;;;20994837;28;20052;-66
2023/08/13 13:59:35;;;;;;;3.83;1.15;;;;;;;;;;20995142;28;20049;-65
2023/08/13 14:09:36;;;;;;;6.45;0.75;;;;;;;;;;20996220;28;20087;-65
2023/08/13 14:19:39;;;;;;;3.28;0.82;;;;;;;;;;20995555;28;20120;-64
2023/08/13 14:29:40;;;;;;;7.90;1.27;;;;;;;;;;20995433;28;20063;-65
2023/08/13 14:39:42;;;;;;;8.85;1.02;;;;;;;;;;20995146;28;20048;-65
2023/08/13 14:49:46;;;;;;;2.72;0.68;;;;;;;;;;20993929;28;20064;-65
2023/08/13 14:59:47;;;;;;;3.38;0.70;;;;;;;;;;21009118;28;20098;-66
2023/08/13 15:09:48;;;;;;;2.42;0.80;;;;;;;;;;21007854;28;20048;-66
2023/08/13 15:19:49;;;;;;;1.38;0.40;;;;;;;;;;21007471;28;20036;-65
2023/08/13 15:29:50;;;;;;;1.38;0.60;;;;;;;;;;21006693;28;20486;-66
2023/08/13 15:39:51;;;;;;;2.55;0.70;;;;;;;;;;21006001;28;20498;-66
2023/08/13 15:49:53;;;;;;;3.28;0.68;;;;;;;;;;21004226;28;20463;-66
2023/08/13 15:59:54;;;;;;;1.38;0.50;;;;;;;;;;21003533;28;20051;-65
2023/08/13 16:09:55;;;;;;;3.08;0.70;;;;;;;;;;21003540;28;20079;-65
2023/08/13 16:19:56;;;;;;;2.20;0.52;;;;;;;;;;21002989;28;20102;-66
2023/08/13 16:29:57;;;;;;;2.63;0.70;;;;;;;;;;21000715;28;20097;-66
2023/08/13 16:39:58;;;;;;;3.05;1.10;;;;;;;;;;21001284;28;20085;-65
2023/08/13 16:49:59;;;;;;;2.47;1.00;;;;;;;;;;20999343;28;20054;-66
2023/08/13 17:00:03;;;;;;;1.92;0.93;;;;;;;;;;20998684;28;20040;-67
2023/08/13 17:10:04;;;;;;;;;;;;;;;;;;20999790;28;20060;-66
2023/08/13 17:20:07;;;;;;;3.63;0.98;;;;;;;;;;20998603;28;19920;-67
2023/08/13 17:30:09;;;;;;;1.37;0.87;;;;;;;;;;20995892;28;20052;-66
2023/08/13 17:40:10;;;;;;;3.55;1.30;;;;;;;;;;20998048;28;20370;-66
2023/08/13 17:50:11;;;;;;;2.22;0.70;;;;;;;;;;20997392;28;20486;-66
2023/08/13 18:00:13;;;;;;;1.48;0.88;;;;;;;;;;20996578;28;20056;-65
2023/08/13 18:10:14;;;;;;;3.03;1.10;;;;;;;;;;20996057;28;20057;-66
2023/08/13 18:20:15;;;;;;;1.63;0.90;;;;;;;;;;20995713;28;20054;-66
2023/08/13 18:30:16;;;;;;;1.42;1.00;;;;;;;;;;21005152;28;20036;-65
2023/08/13 18:40:17;;;;;;;1.98;1.00;;;;;;;;;;21011484;28;20048;-64
2023/08/13 18:50:18;;;;;;;2.45;1.55;;;;;;;;;;21010402;28;20052;-66
2023/08/13 19:00:20;;;;;;;2.35;1.40;;;;;;;;;;21008670;28;20049;-65
2023/08/13 19:10:21;;;;;;;3.10;1.10;;;;;;;;;;21009081;28;20048;-65
2023/08/13 19:20:22;;;;;;;5.95;1.48;;;;;;;;;;21008098;28;20044;-65
2023/08/13 19:30:23;;;;;;;2.28;1.67;;;;;;;;;;21006859;28;20051;-65
2023/08/13 19:40:25;;;;;;;2.70;1.95;;;;;;;;;;21005298;28;20040;-66
2023/08/13 19:50:26;;;;;;;3.50;1.70;;;;;;;;;;21004498;28;20059;-64
2023/08/13 20:00:27;;;;;;;5.53;1.90;;;;;;;;;;21004575;28;20051;-65
2023/08/13 20:10:28;;;;;;;4.65;2.15;;;;;;;;;;21002291;28;20048;-65
2023/08/13 20:20:29;;;;;;;4.13;2.22;;;;;;;;;;21002748;28;20465;-65
2023/08/13 20:30:30;;;;;;;3.88;1.65;;;;;;;;;;21000905;28;20062;-65
2023/08/13 20:40:32;;;;;;;3.90;1.75;;;;;;;;;;21002042;28;20047;-69
2023/08/13 20:50:33;;;;;;;3.92;2.08;;;;;;;;;;20999267;28;20448;-69
2023/08/13 21:00:35;;;;;;;3.17;2.00;;;;;;;;;;20999176;28;20049;-69
2023/08/13 21:10:37;;;;;;;4.68;2.08;;;;;;;;;;20997928;28;20084;-70
2023/08/13 21:20:38;;;;;;;4.10;2.15;;;;;;;;;;20999044;28;20409;-70
2023/08/13 21:30:39;;;;;;;4.35;2.40;;;;;;;;;;20998572;28;20442;-69
2023/08/13 21:40:40;;;;;;;3.20;2.30;;;;;;;;;;20997249;28;20120;-69
2023/08/13 21:50:41;;;;;;;3.10;2.22;;;;;;;;;;20996224;28;20098;-69
2023/08/13 22:00:42;;;;;;;6.85;3.85;;;;;;;;;;20996641;28;20481;-69
2023/08/13 22:10:45;;;;;;;3.33;2.33;;;;;;;;;;20996345;28;20083;-69
2023/08/13 22:20:47;;;;;;;3.00;2.03;;;;;;;;;;20996094;28;20102;-70
2023/08/13 22:30:48;;;;;;;4.78;1.92;;;;;;;;;;20995876;28;20083;-69
2023/08/13 22:40:49;;;;;;;3.65;2.40;;;;;;;;;;20994298;28;20044;-70
2023/08/13 22:50:50;;;;;;;4.53;1.90;;;;;;;;;;20994171;28;20142;-69
2023/08/13 23:00:51;;;;;;;2.75;1.63;;;;;;;;;;20994486;28;20055;-70
2023/08/13 23:10:53;;;;;;;4.03;2.50;;;;;;;;;;20993831;28;20047;-70
2023/08/13 23:20:54;;;;;;;4.90;2.70;;;;;;;;;;21008079;28;20051;-69
2023/08/13 23:30:55;;;;;;;6.32;2.63;;;;;;;;;;21007190;28;20048;-70
2023/08/13 23:40:56;;;;;;;5.80;2.40;;;;;;;;;;21006560;28;20079;-69
2023/08/13 23:50:59;;;;;;;7.00;2.38;;;;;;;;;;21005316;28;20052;-70
